sensor_id;sensor_type;location;lat;lon;timestamp;P1;durP1;ratioP1;P2;durP2;ratioP2
25938;SDS011;13739;51.172;4.466;2022-09-13T00:00:56;4.93;;;2.63;;
25938;SDS011;13739;51.172;4.466;2022-09-13T00:03:23;5.65;;;2.70;;
25938;SDS011;13739;51.172;4.466;2022-09-13T00:05:49;7.93;;;2.50;;
25938;SDS011;13739;51.172;4.466;2022-09-13T00:08:15;4.20;;;2.65;;
25938;SDS011;13739;51.172;4.466;2022-09-13T00:10:41;4.32;;;2.70;;
25938;SDS011;13739;51.172;4.466;2022-09-13T00:13:08;8.93;;;2.88;;
25938;SDS011;13739;51.172;4.466;2022-09-13T00:15:35;5.85;;;2.55;;
25938;SDS011;13739;51.172;4.466;2022-09-13T00:18:01;4.18;;;2.40;;
25938;SDS011;13739;51.172;4.466;2022-09-13T00:20:28;4.40;;;2.58;;
25938;SDS011;13739;51.172;4.466;2022-09-13T00:22:54;6.32;;;2.40;;
25938;SDS011;13739;51.172;4.466;2022-09-13T00:25:19;3.53;;;2.40;;
25938;SDS011;13739;51.172;4.466;2022-09-13T00:27:45;8.75;;;2.47;;
25938;SDS011;13739;51.172;4.466;2022-09-13T00:30:11;3.72;;;2.35;;
25938;SDS011;13739;51.172;4.466;2022-09-13T00:32:37;3.70;;;2.40;;
25938;SDS011;13739;51.172;4.466;2022-09-13T00:35:03;4.93;;;2.30;;
25938;SDS011;13739;51.172;4.466;2022-09-13T00:37:30;4.95;;;2.20;;
25938;SDS011;13739;51.172;4.466;2022-09-13T00:39:57;5.95;;;2.42;;
25938;SDS011;13739;51.172;4.466;2022-09-13T00:42:27;3.35;;;2.17;;
25938;SDS011;13739;51.172;4.466;2022-09-13T00:50:07;4.95;;;2.25;;
25938;SDS011;13739;51.172;4.466;2022-09-13T00:52:33;3.35;;;2.00;;
25938;SDS011;13739;51.172;4.466;2022-09-13T00:55:03;5.00;;;2.30;;
25938;SDS011;13739;51.172;4.466;2022-09-13T00:57:32;3.25;;;2.15;;
25938;SDS011;13739;51.172;4.466;2022-09-13T01:00:04;4.00;;;2.40;;
25938;SDS011;13739;51.172;4.466;2022-09-13T01:02:37;2.65;;;2.10;;
25938;SDS011;13739;51.172;4.466;2022-09-13T01:05:06;3.22;;;2.00;;
25938;SDS011;13739;51.172;4.466;2022-09-13T01:07:32;4.13;;;2.05;;
25938;SDS011;13739;51.172;4.466;2022-09-13T01:09:58;3.50;;;1.92;;
25938;SDS011;13739;51.172;4.466;2022-09-13T01:12:34;3.92;;;2.25;;
25938;SDS011;13739;51.172;4.466;2022-09-13T01:15:08;3.30;;;2.22;;
25938;SDS011;13739;51.172;4.466;2022-09-13T01:17:34;5.60;;;2.40;;
25938;SDS011;13739;51.172;4.466;2022-09-13T01:20:03;3.65;;;2.20;;
25938;SDS011;13739;51.172;4.466;2022-09-13T01:31:24;2.97;;;2.00;;
25938;SDS011;13739;51.172;4.466;2022-09-13T01:36:43;2.80;;;1.90;;
25938;SDS011;13739;51.172;4.466;2022-09-13T01:39:15;4.60;;;2.22;;
25938;SDS011;13739;51.172;4.466;2022-09-13T01:42:02;4.47;;;2.10;;
25938;SDS011;13739;51.172;4.466;2022-09-13T01:58:06;3.28;;;1.80;;
25938;SDS011;13739;51.172;4.466;2022-09-13T02:00:57;2.78;;;1.98;;
25938;SDS011;13739;51.172;4.466;2022-09-13T02:03:32;3.15;;;1.95;;
25938;SDS011;13739;51.172;4.466;2022-09-13T02:06:05;3.22;;;1.90;;
25938;SDS011;13739;51.172;4.466;2022-09-13T02:11:19;4.35;;;1.65;;
25938;SDS011;13739;51.172;4.466;2022-09-13T02:13:57;5.18;;;2.25;;
25938;SDS011;13739;51.172;4.466;2022-09-13T02:19:38;4.32;;;1.90;;
25938;SDS011;13739;51.172;4.466;2022-09-13T02:22:11;4.20;;;2.55;;
25938;SDS011;13739;51.172;4.466;2022-09-13T02:24:41;3.50;;;1.85;;
25938;SDS011;13739;51.172;4.466;2022-09-13T02:27:13;3.53;;;1.98;;
25938;SDS011;13739;51.172;4.466;2022-09-13T02:29:44;5.30;;;2.22;;
25938;SDS011;13739;51.172;4.466;2022-09-13T02:32:20;4.55;;;2.22;;
25938;SDS011;13739;51.172;4.466;2022-09-13T02:34:51;3.38;;;1.90;;
25938;SDS011;13739;51.172;4.466;2022-09-13T02:37:21;4.68;;;2.33;;
25938;SDS011;13739;51.172;4.466;2022-09-13T02:39:51;4.75;;;2.53;;
25938;SDS011;13739;51.172;4.466;2022-09-13T02:42:30;3.42;;;2.17;;
25938;SDS011;13739;51.172;4.466;2022-09-13T02:45:11;3.45;;;2.30;;
25938;SDS011;13739;51.172;4.466;2022-09-13T02:47:43;3.25;;;2.10;;
25938;SDS011;13739;51.172;4.466;2022-09-13T02:58:25;6.22;;;2.28;;
25938;SDS011;13739;51.172;4.466;2022-09-13T03:00:57;6.53;;;2.45;;
25938;SDS011;13739;51.172;4.466;2022-09-13T03:03:23;4.93;;;2.58;;
25938;SDS011;13739;51.172;4.466;2022-09-13T03:05:49;6.43;;;2.60;;
25938;SDS011;13739;51.172;4.466;2022-09-13T03:08:15;3.42;;;2.38;;
25938;SDS011;13739;51.172;4.466;2022-09-13T03:13:39;5.22;;;2.80;;
25938;SDS011;13739;51.172;4.466;2022-09-13T03:19:02;4.57;;;2.60;;
25938;SDS011;13739;51.172;4.466;2022-09-13T03:24:25;3.35;;;2.38;;
25938;SDS011;13739;51.172;4.466;2022-09-13T03:35:14;6.15;;;2.70;;
25938;SDS011;13739;51.172;4.466;2022-09-13T03:40:42;6.55;;;2.53;;
25938;SDS011;13739;51.172;4.466;2022-09-13T03:43:43;6.78;;;2.83;;
25938;SDS011;13739;51.172;4.466;2022-09-13T03:46:20;4.75;;;2.28;;
25938;SDS011;13739;51.172;4.466;2022-09-13T03:48:47;5.82;;;2.60;;
25938;SDS011;13739;51.172;4.466;2022-09-13T03:51:15;4.22;;;2.40;;
25938;SDS011;13739;51.172;4.466;2022-09-13T03:53:42;5.13;;;2.35;;
25938;SDS011;13739;51.172;4.466;2022-09-13T03:56:15;5.10;;;2.55;;
25938;SDS011;13739;51.172;4.466;2022-09-13T03:58:42;5.20;;;3.00;;
25938;SDS011;13739;51.172;4.466;2022-09-13T04:01:08;8.02;;;2.75;;
25938;SDS011;13739;51.172;4.466;2022-09-13T04:03:35;9.18;;;2.70;;
25938;SDS011;13739;51.172;4.466;2022-09-13T04:06:01;3.97;;;2.40;;
25938;SDS011;13739;51.172;4.466;2022-09-13T04:08:27;5.25;;;2.50;;
25938;SDS011;13739;51.172;4.466;2022-09-13T04:10:52;5.28;;;2.85;;
25938;SDS011;13739;51.172;4.466;2022-09-13T04:13:18;5.22;;;2.63;;
25938;SDS011;13739;51.172;4.466;2022-09-13T04:15:47;5.35;;;2.35;;
25938;SDS011;13739;51.172;4.466;2022-09-13T04:18:14;6.80;;;2.53;;
25938;SDS011;13739;51.172;4.466;2022-09-13T04:20:40;7.72;;;3.10;;
25938;SDS011;13739;51.172;4.466;2022-09-13T04:23:06;4.55;;;2.38;;
25938;SDS011;13739;51.172;4.466;2022-09-13T04:25:31;6.90;;;2.65;;
25938;SDS011;13739;51.172;4.466;2022-09-13T04:27:57;3.92;;;2.80;;
25938;SDS011;13739;51.172;4.466;2022-09-13T04:30:24;6.90;;;2.90;;
25938;SDS011;13739;51.172;4.466;2022-09-13T04:32:50;5.30;;;2.53;;
25938;SDS011;13739;51.172;4.466;2022-09-13T04:35:16;5.05;;;2.30;;
25938;SDS011;13739;51.172;4.466;2022-09-13T04:37:43;5.50;;;2.60;;
25938;SDS011;13739;51.172;4.466;2022-09-13T04:40:10;7.30;;;2.53;;
25938;SDS011;13739;51.172;4.466;2022-09-13T04:42:36;5.68;;;2.42;;
25938;SDS011;13739;51.172;4.466;2022-09-13T04:45:01;5.25;;;2.65;;
25938;SDS011;13739;51.172;4.466;2022-09-13T04:47:27;5.57;;;2.80;;
25938;SDS011;13739;51.172;4.466;2022-09-13T04:49:53;5.35;;;2.28;;
25938;SDS011;13739;51.172;4.466;2022-09-13T04:52:19;5.68;;;2.90;;
25938;SDS011;13739;51.172;4.466;2022-09-13T04:54:45;4.82;;;2.65;;
25938;SDS011;13739;51.172;4.466;2022-09-13T04:57:12;6.85;;;2.80;;
25938;SDS011;13739;51.172;4.466;2022-09-13T04:59:38;4.82;;;2.75;;
25938;SDS011;13739;51.172;4.466;2022-09-13T05:02:04;4.60;;;2.47;;
25938;SDS011;13739;51.172;4.466;2022-09-13T05:04:30;9.23;;;2.67;;
25938;SDS011;13739;51.172;4.466;2022-09-13T05:06:56;4.65;;;2.80;;
25938;SDS011;13739;51.172;4.466;2022-09-13T05:09:23;4.75;;;2.88;;
25938;SDS011;13739;51.172;4.466;2022-09-13T05:11:49;5.68;;;3.10;;
25938;SDS011;13739;51.172;4.466;2022-09-13T05:14:15;7.47;;;2.83;;
25938;SDS011;13739;51.172;4.466;2022-09-13T05:16:40;4.30;;;2.97;;
25938;SDS011;13739;51.172;4.466;2022-09-13T05:19:06;6.43;;;2.83;;
25938;SDS011;13739;51.172;4.466;2022-09-13T05:21:33;4.68;;;3.05;;
25938;SDS011;13739;51.172;4.466;2022-09-13T05:23:58;6.35;;;3.10;;
25938;SDS011;13739;51.172;4.466;2022-09-13T05:26:25;4.68;;;2.72;;
25938;SDS011;13739;51.172;4.466;2022-09-13T05:28:53;4.97;;;2.70;;
25938;SDS011;13739;51.172;4.466;2022-09-13T05:31:23;4.57;;;2.78;;
25938;SDS011;13739;51.172;4.466;2022-09-13T05:33:54;5.80;;;3.03;;
25938;SDS011;13739;51.172;4.466;2022-09-13T05:36:22;6.80;;;3.20;;
25938;SDS011;13739;51.172;4.466;2022-09-13T05:38:48;7.43;;;3.33;;
25938;SDS011;13739;51.172;4.466;2022-09-13T05:41:14;5.82;;;2.90;;
25938;SDS011;13739;51.172;4.466;2022-09-13T05:43:39;6.95;;;2.80;;
25938;SDS011;13739;51.172;4.466;2022-09-13T05:46:06;4.57;;;2.70;;
25938;SDS011;13739;51.172;4.466;2022-09-13T05:48:36;7.25;;;3.72;;
25938;SDS011;13739;51.172;4.466;2022-09-13T05:51:03;8.35;;;3.20;;
25938;SDS011;13739;51.172;4.466;2022-09-13T05:53:42;10.60;;;3.00;;
25938;SDS011;13739;51.172;4.466;2022-09-13T05:56:10;6.05;;;3.05;;
25938;SDS011;13739;51.172;4.466;2022-09-13T05:58:38;5.18;;;3.25;;
25938;SDS011;13739;51.172;4.466;2022-09-13T06:01:09;7.82;;;3.10;;
25938;SDS011;13739;51.172;4.466;2022-09-13T06:03:36;7.18;;;3.38;;
25938;SDS011;13739;51.172;4.466;2022-09-13T06:06:02;12.48;;;4.00;;
25938;SDS011;13739;51.172;4.466;2022-09-13T06:08:29;6.97;;;3.22;;
25938;SDS011;13739;51.172;4.466;2022-09-13T06:10:56;7.47;;;3.33;;
25938;SDS011;13739;51.172;4.466;2022-09-13T06:13:29;4.57;;;2.90;;
25938;SDS011;13739;51.172;4.466;2022-09-13T06:15:56;6.25;;;3.55;;
25938;SDS011;13739;51.172;4.466;2022-09-13T06:18:23;5.95;;;3.45;;
25938;SDS011;13739;51.172;4.466;2022-09-13T06:20:50;6.05;;;2.95;;
25938;SDS011;13739;51.172;4.466;2022-09-13T06:23:16;5.40;;;2.97;;
25938;SDS011;13739;51.172;4.466;2022-09-13T06:25:42;5.85;;;3.63;;
25938;SDS011;13739;51.172;4.466;2022-09-13T06:28:08;8.27;;;3.35;;
25938;SDS011;13739;51.172;4.466;2022-09-13T06:30:34;13.40;;;3.28;;
25938;SDS011;13739;51.172;4.466;2022-09-13T06:33:00;9.35;;;3.10;;
25938;SDS011;13739;51.172;4.466;2022-09-13T06:35:26;10.23;;;3.65;;
25938;SDS011;13739;51.172;4.466;2022-09-13T06:37:55;5.90;;;3.05;;
25938;SDS011;13739;51.172;4.466;2022-09-13T06:40:24;8.57;;;2.92;;
25938;SDS011;13739;51.172;4.466;2022-09-13T06:42:50;6.60;;;3.13;;
25938;SDS011;13739;51.172;4.466;2022-09-13T06:45:15;8.45;;;3.95;;
25938;SDS011;13739;51.172;4.466;2022-09-13T06:47:42;7.00;;;3.85;;
25938;SDS011;13739;51.172;4.466;2022-09-13T06:50:08;6.75;;;4.10;;
25938;SDS011;13739;51.172;4.466;2022-09-13T06:52:34;6.97;;;4.45;;
25938;SDS011;13739;51.172;4.466;2022-09-13T06:54:59;8.60;;;4.25;;
25938;SDS011;13739;51.172;4.466;2022-09-13T06:57:25;9.68;;;4.53;;
25938;SDS011;13739;51.172;4.466;2022-09-13T06:59:53;9.38;;;3.78;;
25938;SDS011;13739;51.172;4.466;2022-09-13T07:02:19;8.63;;;3.67;;
25938;SDS011;13739;51.172;4.466;2022-09-13T07:04:45;11.07;;;3.65;;
25938;SDS011;13739;51.172;4.466;2022-09-13T07:07:11;7.20;;;3.92;;
25938;SDS011;13739;51.172;4.466;2022-09-13T07:09:36;8.52;;;3.58;;
25938;SDS011;13739;51.172;4.466;2022-09-13T07:12:04;7.80;;;3.90;;
25938;SDS011;13739;51.172;4.466;2022-09-13T07:14:31;9.35;;;3.85;;
25938;SDS011;13739;51.172;4.466;2022-09-13T07:16:56;8.35;;;3.80;;
25938;SDS011;13739;51.172;4.466;2022-09-13T07:19:23;7.88;;;3.53;;
25938;SDS011;13739;51.172;4.466;2022-09-13T07:21:51;7.65;;;4.00;;
25938;SDS011;13739;51.172;4.466;2022-09-13T07:24:17;7.20;;;4.15;;
25938;SDS011;13739;51.172;4.466;2022-09-13T07:26:44;7.72;;;4.72;;
25938;SDS011;13739;51.172;4.466;2022-09-13T07:29:12;12.25;;;3.85;;
25938;SDS011;13739;51.172;4.466;2022-09-13T07:31:41;9.68;;;3.90;;
25938;SDS011;13739;51.172;4.466;2022-09-13T07:34:15;10.40;;;3.58;;
25938;SDS011;13739;51.172;4.466;2022-09-13T07:36:42;6.68;;;3.83;;
25938;SDS011;13739;51.172;4.466;2022-09-13T07:39:10;11.45;;;4.25;;
25938;SDS011;13739;51.172;4.466;2022-09-13T07:41:37;9.65;;;4.63;;
25938;SDS011;13739;51.172;4.466;2022-09-13T07:44:03;6.28;;;3.90;;
25938;SDS011;13739;51.172;4.466;2022-09-13T07:46:32;8.65;;;4.07;;
25938;SDS011;13739;51.172;4.466;2022-09-13T07:49:00;9.13;;;3.85;;
25938;SDS011;13739;51.172;4.466;2022-09-13T07:51:33;9.73;;;3.83;;
25938;SDS011;13739;51.172;4.466;2022-09-13T07:54:05;10.90;;;4.18;;
25938;SDS011;13739;51.172;4.466;2022-09-13T07:56:34;13.90;;;4.90;;
25938;SDS011;13739;51.172;4.466;2022-09-13T07:59:03;12.57;;;4.68;;
25938;SDS011;13739;51.172;4.466;2022-09-13T08:01:38;14.48;;;5.45;;
25938;SDS011;13739;51.172;4.466;2022-09-13T08:04:06;9.82;;;4.63;;
25938;SDS011;13739;51.172;4.466;2022-09-13T08:06:34;9.70;;;4.25;;
25938;SDS011;13739;51.172;4.466;2022-09-13T08:09:02;10.95;;;4.93;;
25938;SDS011;13739;51.172;4.466;2022-09-13T08:11:29;15.48;;;5.72;;
25938;SDS011;13739;51.172;4.466;2022-09-13T08:14:03;15.18;;;5.32;;
25938;SDS011;13739;51.172;4.466;2022-09-13T08:16:30;10.63;;;5.05;;
25938;SDS011;13739;51.172;4.466;2022-09-13T08:18:57;9.00;;;5.10;;
25938;SDS011;13739;51.172;4.466;2022-09-13T08:21:24;11.30;;;5.18;;
25938;SDS011;13739;51.172;4.466;2022-09-13T08:23:54;10.85;;;4.68;;
25938;SDS011;13739;51.172;4.466;2022-09-13T08:26:21;8.75;;;5.53;;
25938;SDS011;13739;51.172;4.466;2022-09-13T08:28:46;8.70;;;4.82;;
25938;SDS011;13739;51.172;4.466;2022-09-13T08:31:13;14.57;;;6.03;;
25938;SDS011;13739;51.172;4.466;2022-09-13T08:33:42;13.73;;;5.57;;
25938;SDS011;13739;51.172;4.466;2022-09-13T08:36:09;12.48;;;5.78;;
25938;SDS011;13739;51.172;4.466;2022-09-13T08:38:34;13.63;;;6.43;;
25938;SDS011;13739;51.172;4.466;2022-09-13T08:41:12;13.50;;;6.60;;
25938;SDS011;13739;51.172;4.466;2022-09-13T08:44:06;14.13;;;6.45;;
25938;SDS011;13739;51.172;4.466;2022-09-13T08:46:40;11.70;;;6.50;;
25938;SDS011;13739;51.172;4.466;2022-09-13T08:49:13;14.07;;;6.22;;
25938;SDS011;13739;51.172;4.466;2022-09-13T08:51:44;14.63;;;6.55;;
25938;SDS011;13739;51.172;4.466;2022-09-13T08:54:14;12.85;;;6.03;;
25938;SDS011;13739;51.172;4.466;2022-09-13T08:57:00;10.10;;;6.28;;
25938;SDS011;13739;51.172;4.466;2022-09-13T09:15:00;8.93;;;5.63;;
25938;SDS011;13739;51.172;4.466;2022-09-13T09:17:59;9.20;;;4.82;;
25938;SDS011;13739;51.172;4.466;2022-09-13T09:22:59;8.80;;;5.10;;
25938;SDS011;13739;51.172;4.466;2022-09-13T09:25:32;8.20;;;4.03;;
25938;SDS011;13739;51.172;4.466;2022-09-13T09:27:58;12.10;;;6.32;;
25938;SDS011;13739;51.172;4.466;2022-09-13T09:30:28;8.98;;;5.30;;
25938;SDS011;13739;51.172;4.466;2022-09-13T09:33:28;9.32;;;5.20;;
25938;SDS011;13739;51.172;4.466;2022-09-13T09:36:19;9.40;;;5.38;;
25938;SDS011;13739;51.172;4.466;2022-09-13T09:38:48;10.95;;;5.18;;
25938;SDS011;13739;51.172;4.466;2022-09-13T09:43:52;9.15;;;5.60;;
25938;SDS011;13739;51.172;4.466;2022-09-13T09:46:55;10.77;;;5.57;;
25938;SDS011;13739;51.172;4.466;2022-09-13T09:52:25;10.13;;;5.85;;
25938;SDS011;13739;51.172;4.466;2022-09-13T09:54:57;9.23;;;5.53;;
25938;SDS011;13739;51.172;4.466;2022-09-13T10:00:16;8.50;;;4.55;;
25938;SDS011;13739;51.172;4.466;2022-09-13T10:02:43;9.57;;;4.40;;
25938;SDS011;13739;51.172;4.466;2022-09-13T10:05:09;7.80;;;4.35;;
25938;SDS011;13739;51.172;4.466;2022-09-13T10:07:38;7.35;;;2.60;;
25938;SDS011;13739;51.172;4.466;2022-09-13T10:10:07;5.82;;;2.95;;
25938;SDS011;13739;51.172;4.466;2022-09-13T10:12:50;4.35;;;2.97;;
25938;SDS011;13739;51.172;4.466;2022-09-13T10:15:21;5.75;;;3.40;;
25938;SDS011;13739;51.172;4.466;2022-09-13T10:17:59;6.55;;;3.22;;
25938;SDS011;13739;51.172;4.466;2022-09-13T10:20:27;6.60;;;3.50;;
25938;SDS011;13739;51.172;4.466;2022-09-13T10:25:43;6.78;;;3.28;;
25938;SDS011;13739;51.172;4.466;2022-09-13T10:28:20;6.10;;;3.50;;
25938;SDS011;13739;51.172;4.466;2022-09-13T10:30:47;5.82;;;3.08;;
25938;SDS011;13739;51.172;4.466;2022-09-13T10:33:23;6.45;;;2.90;;
25938;SDS011;13739;51.172;4.466;2022-09-13T10:35:53;7.32;;;3.20;;
25938;SDS011;13739;51.172;4.466;2022-09-13T10:38:28;6.00;;;2.85;;
25938;SDS011;13739;51.172;4.466;2022-09-13T10:40:56;4.68;;;2.65;;
25938;SDS011;13739;51.172;4.466;2022-09-13T10:43:26;5.95;;;3.40;;
25938;SDS011;13739;51.172;4.466;2022-09-13T10:45:53;4.47;;;2.63;;
25938;SDS011;13739;51.172;4.466;2022-09-13T10:48:20;4.85;;;2.40;;
25938;SDS011;13739;51.172;4.466;2022-09-13T10:53:37;3.78;;;2.42;;
25938;SDS011;13739;51.172;4.466;2022-09-13T10:56:05;3.85;;;2.30;;
25938;SDS011;13739;51.172;4.466;2022-09-13T10:58:43;4.65;;;2.58;;
25938;SDS011;13739;51.172;4.466;2022-09-13T11:01:20;5.88;;;2.97;;
25938;SDS011;13739;51.172;4.466;2022-09-13T11:04:12;4.65;;;2.38;;
25938;SDS011;13739;51.172;4.466;2022-09-13T11:07:15;4.68;;;2.70;;
25938;SDS011;13739;51.172;4.466;2022-09-13T11:12:39;5.13;;;2.60;;
25938;SDS011;13739;51.172;4.466;2022-09-13T11:34:36;4.80;;;3.42;;
25938;SDS011;13739;51.172;4.466;2022-09-13T11:37:13;7.05;;;4.05;;
25938;SDS011;13739;51.172;4.466;2022-09-13T11:45:39;8.00;;;4.07;;
25938;SDS011;13739;51.172;4.466;2022-09-13T11:56:37;9.45;;;5.63;;
25938;SDS011;13739;51.172;4.466;2022-09-13T12:02:08;9.48;;;5.60;;
25938;SDS011;13739;51.172;4.466;2022-09-13T12:04:51;10.20;;;5.95;;
25938;SDS011;13739;51.172;4.466;2022-09-13T12:07:28;10.13;;;5.32;;
25938;SDS011;13739;51.172;4.466;2022-09-13T12:12:49;8.85;;;5.20;;
25938;SDS011;13739;51.172;4.466;2022-09-13T12:15:31;9.48;;;5.80;;
25938;SDS011;13739;51.172;4.466;2022-09-13T12:21:11;10.73;;;5.80;;
25938;SDS011;13739;51.172;4.466;2022-09-13T12:23:57;9.27;;;5.60;;
25938;SDS011;13739;51.172;4.466;2022-09-13T12:29:01;12.73;;;6.90;;
25938;SDS011;13739;51.172;4.466;2022-09-13T12:31:44;15.15;;;6.60;;
25938;SDS011;13739;51.172;4.466;2022-09-13T12:34:16;12.73;;;7.35;;
25938;SDS011;13739;51.172;4.466;2022-09-13T13:01:59;9.50;;;5.15;;
25938;SDS011;13739;51.172;4.466;2022-09-13T13:04:29;9.13;;;5.85;;
25938;SDS011;13739;51.172;4.466;2022-09-13T13:07:00;11.77;;;4.97;;
25938;SDS011;13739;51.172;4.466;2022-09-13T13:09:38;9.93;;;5.85;;
25938;SDS011;13739;51.172;4.466;2022-09-13T13:12:09;12.35;;;7.40;;
25938;SDS011;13739;51.172;4.466;2022-09-13T13:14:48;9.23;;;6.10;;
25938;SDS011;13739;51.172;4.466;2022-09-13T13:33:51;11.02;;;6.43;;
25938;SDS011;13739;51.172;4.466;2022-09-13T13:38:58;13.77;;;6.85;;
25938;SDS011;13739;51.172;4.466;2022-09-13T13:43:57;9.18;;;5.40;;
25938;SDS011;13739;51.172;4.466;2022-09-13T13:48:53;15.32;;;7.32;;
25938;SDS011;13739;51.172;4.466;2022-09-13T13:51:21;14.43;;;6.72;;
25938;SDS011;13739;51.172;4.466;2022-09-13T13:53:53;13.05;;;6.93;;
25938;SDS011;13739;51.172;4.466;2022-09-13T14:01:31;13.85;;;8.90;;
25938;SDS011;13739;51.172;4.466;2022-09-13T14:06:52;17.92;;;8.80;;
25938;SDS011;13739;51.172;4.466;2022-09-13T14:09:31;14.68;;;9.35;;
25938;SDS011;13739;51.172;4.466;2022-09-13T14:20:23;18.60;;;10.75;;
25938;SDS011;13739;51.172;4.466;2022-09-13T14:22:50;21.55;;;10.70;;
25938;SDS011;13739;51.172;4.466;2022-09-13T14:27:44;18.92;;;11.27;;
25938;SDS011;13739;51.172;4.466;2022-09-13T14:32:49;16.80;;;10.95;;
25938;SDS011;13739;51.172;4.466;2022-09-13T14:38:15;19.15;;;11.10;;
25938;SDS011;13739;51.172;4.466;2022-09-13T14:40:49;16.42;;;10.48;;
25938;SDS011;13739;51.172;4.466;2022-09-13T14:43:20;17.58;;;10.20;;
25938;SDS011;13739;51.172;4.466;2022-09-13T14:45:49;16.48;;;8.98;;
25938;SDS011;13739;51.172;4.466;2022-09-13T14:48:24;13.77;;;8.43;;
25938;SDS011;13739;51.172;4.466;2022-09-13T14:50:56;13.45;;;7.78;;
25938;SDS011;13739;51.172;4.466;2022-09-13T14:53:27;10.30;;;7.50;;
25938;SDS011;13739;51.172;4.466;2022-09-13T14:56:21;10.77;;;6.85;;
25938;SDS011;13739;51.172;4.466;2022-09-13T14:58:56;14.57;;;7.03;;
25938;SDS011;13739;51.172;4.466;2022-09-13T15:01:28;13.73;;;7.15;;
25938;SDS011;13739;51.172;4.466;2022-09-13T15:03:58;13.25;;;6.90;;
25938;SDS011;13739;51.172;4.466;2022-09-13T15:06:26;12.63;;;6.95;;
25938;SDS011;13739;51.172;4.466;2022-09-13T15:08:56;16.23;;;7.68;;
25938;SDS011;13739;51.172;4.466;2022-09-13T15:11:41;17.13;;;7.03;;
25938;SDS011;13739;51.172;4.466;2022-09-13T15:19:38;13.13;;;6.68;;
25938;SDS011;13739;51.172;4.466;2022-09-13T15:22:19;9.23;;;6.70;;
25938;SDS011;13739;51.172;4.466;2022-09-13T15:24:56;14.77;;;7.88;;
25938;SDS011;13739;51.172;4.466;2022-09-13T15:27:27;13.43;;;7.70;;
25938;SDS011;13739;51.172;4.466;2022-09-13T15:29:56;13.55;;;7.85;;
25938;SDS011;13739;51.172;4.466;2022-09-13T15:32:31;14.02;;;8.00;;
25938;SDS011;13739;51.172;4.466;2022-09-13T15:34:59;17.77;;;8.00;;
25938;SDS011;13739;51.172;4.466;2022-09-13T15:37:30;13.68;;;8.00;;
25938;SDS011;13739;51.172;4.466;2022-09-13T15:40:27;21.98;;;9.25;;
25938;SDS011;13739;51.172;4.466;2022-09-13T15:42:48;13.10;;;7.70;;
25938;SDS011;13739;51.172;4.466;2022-09-13T15:45:16;11.80;;;8.25;;
25938;SDS011;13739;51.172;4.466;2022-09-13T15:47:44;16.67;;;9.02;;
25938;SDS011;13739;51.172;4.466;2022-09-13T15:50:19;13.77;;;9.00;;
25938;SDS011;13739;51.172;4.466;2022-09-13T15:52:51;14.18;;;9.07;;
25938;SDS011;13739;51.172;4.466;2022-09-13T15:55:18;14.77;;;9.15;;
25938;SDS011;13739;51.172;4.466;2022-09-13T15:57:44;14.95;;;9.80;;
25938;SDS011;13739;51.172;4.466;2022-09-13T16:00:20;17.50;;;9.77;;
25938;SDS011;13739;51.172;4.466;2022-09-13T16:02:48;17.27;;;9.00;;
25938;SDS011;13739;51.172;4.466;2022-09-13T16:05:14;14.30;;;9.10;;
25938;SDS011;13739;51.172;4.466;2022-09-13T16:07:40;15.02;;;9.20;;
25938;SDS011;13739;51.172;4.466;2022-09-13T16:10:09;19.63;;;9.65;;
25938;SDS011;13739;51.172;4.466;2022-09-13T16:12:46;13.88;;;8.63;;
25938;SDS011;13739;51.172;4.466;2022-09-13T16:15:12;16.45;;;10.07;;
25938;SDS011;13739;51.172;4.466;2022-09-13T16:17:38;13.40;;;9.13;;
25938;SDS011;13739;51.172;4.466;2022-09-13T16:20:04;16.30;;;9.93;;
25938;SDS011;13739;51.172;4.466;2022-09-13T16:22:32;17.63;;;9.90;;
25938;SDS011;13739;51.172;4.466;2022-09-13T16:24:58;15.27;;;8.98;;
25938;SDS011;13739;51.172;4.466;2022-09-13T16:27:24;12.77;;;8.82;;
25938;SDS011;13739;51.172;4.466;2022-09-13T16:29:51;12.60;;;7.70;;
25938;SDS011;13739;51.172;4.466;2022-09-13T16:32:17;9.73;;;7.47;;
25938;SDS011;13739;51.172;4.466;2022-09-13T16:34:43;13.05;;;8.20;;
25938;SDS011;13739;51.172;4.466;2022-09-13T16:37:09;9.40;;;7.22;;
25938;SDS011;13739;51.172;4.466;2022-09-13T16:39:41;10.65;;;7.18;;
25938;SDS011;13739;51.172;4.466;2022-09-13T16:42:07;11.45;;;7.45;;
25938;SDS011;13739;51.172;4.466;2022-09-13T16:44:32;8.75;;;6.70;;
25938;SDS011;13739;51.172;4.466;2022-09-13T16:46:58;9.20;;;7.18;;
25938;SDS011;13739;51.172;4.466;2022-09-13T16:49:24;10.30;;;7.60;;
25938;SDS011;13739;51.172;4.466;2022-09-13T16:51:50;11.55;;;7.50;;
25938;SDS011;13739;51.172;4.466;2022-09-13T16:54:16;12.27;;;7.63;;
25938;SDS011;13739;51.172;4.466;2022-09-13T16:56:41;9.20;;;6.65;;
25938;SDS011;13739;51.172;4.466;2022-09-13T16:59:07;11.15;;;6.88;;
25938;SDS011;13739;51.172;4.466;2022-09-13T17:01:33;9.68;;;5.70;;
25938;SDS011;13739;51.172;4.466;2022-09-13T17:03:58;7.95;;;5.97;;
25938;SDS011;13739;51.172;4.466;2022-09-13T17:06:24;6.28;;;5.22;;
25938;SDS011;13739;51.172;4.466;2022-09-13T17:08:52;7.47;;;5.22;;
25938;SDS011;13739;51.172;4.466;2022-09-13T17:11:21;9.07;;;5.88;;
25938;SDS011;13739;51.172;4.466;2022-09-13T17:13:47;7.28;;;4.88;;
25938;SDS011;13739;51.172;4.466;2022-09-13T17:16:27;9.13;;;5.07;;
25938;SDS011;13739;51.172;4.466;2022-09-13T17:18:59;6.60;;;4.47;;
25938;SDS011;13739;51.172;4.466;2022-09-13T17:21:27;5.53;;;4.38;;
25938;SDS011;13739;51.172;4.466;2022-09-13T17:23:53;6.85;;;4.43;;
25938;SDS011;13739;51.172;4.466;2022-09-13T17:26:19;7.55;;;4.00;;
25938;SDS011;13739;51.172;4.466;2022-09-13T17:28:45;4.82;;;3.65;;
25938;SDS011;13739;51.172;4.466;2022-09-13T17:31:11;8.43;;;3.42;;
25938;SDS011;13739;51.172;4.466;2022-09-13T17:33:36;5.35;;;3.88;;
25938;SDS011;13739;51.172;4.466;2022-09-13T17:36:06;5.60;;;4.00;;
25938;SDS011;13739;51.172;4.466;2022-09-13T17:38:36;5.90;;;3.38;;
25938;SDS011;13739;51.172;4.466;2022-09-13T17:41:04;5.68;;;3.30;;
25938;SDS011;13739;51.172;4.466;2022-09-13T17:43:34;5.93;;;3.15;;
25938;SDS011;13739;51.172;4.466;2022-09-13T17:46:08;5.43;;;3.65;;
25938;SDS011;13739;51.172;4.466;2022-09-13T17:48:39;7.60;;;3.28;;
25938;SDS011;13739;51.172;4.466;2022-09-13T17:51:11;5.32;;;3.00;;
25938;SDS011;13739;51.172;4.466;2022-09-13T17:53:39;5.65;;;3.45;;
25938;SDS011;13739;51.172;4.466;2022-09-13T17:56:08;6.38;;;2.95;;
25938;SDS011;13739;51.172;4.466;2022-09-13T17:58:34;4.93;;;2.90;;
25938;SDS011;13739;51.172;4.466;2022-09-13T18:01:04;6.68;;;3.13;;
25938;SDS011;13739;51.172;4.466;2022-09-13T18:03:32;6.65;;;3.50;;
25938;SDS011;13739;51.172;4.466;2022-09-13T18:05:59;5.25;;;3.70;;
25938;SDS011;13739;51.172;4.466;2022-09-13T18:08:27;4.57;;;3.53;;
25938;SDS011;13739;51.172;4.466;2022-09-13T18:10:54;7.18;;;3.00;;
25938;SDS011;13739;51.172;4.466;2022-09-13T18:13:29;5.53;;;3.40;;
25938;SDS011;13739;51.172;4.466;2022-09-13T18:15:58;9.57;;;3.40;;
25938;SDS011;13739;51.172;4.466;2022-09-13T18:18:25;5.38;;;3.38;;
25938;SDS011;13739;51.172;4.466;2022-09-13T18:20:51;7.63;;;3.38;;
25938;SDS011;13739;51.172;4.466;2022-09-13T18:23:17;8.85;;;3.40;;
25938;SDS011;13739;51.172;4.466;2022-09-13T18:25:42;6.13;;;3.35;;
25938;SDS011;13739;51.172;4.466;2022-09-13T18:28:09;8.05;;;3.42;;
25938;SDS011;13739;51.172;4.466;2022-09-13T18:30:34;6.60;;;3.42;;
25938;SDS011;13739;51.172;4.466;2022-09-13T18:33:00;7.50;;;3.25;;
25938;SDS011;13739;51.172;4.466;2022-09-13T18:35:26;5.43;;;3.15;;
25938;SDS011;13739;51.172;4.466;2022-09-13T18:37:51;6.50;;;2.95;;
25938;SDS011;13739;51.172;4.466;2022-09-13T18:40:17;5.40;;;2.88;;
25938;SDS011;13739;51.172;4.466;2022-09-13T18:42:43;4.88;;;2.88;;